Conejos, Valles Caldera, New Mexico Weather observations

Data are for 10 minute period ending at time listed.
 Day   Time   Solar   Ave.   Ave.  Ave.  Vector  Max.   Baro.   Total    
  of    of     Rad.   Air    Rel.  Wind   Wind   Wind  Press.  Precip.   
Year   Day            Temp.  Hum.  Speed  Dir.   Gust                    
2015   (MST)  Kw/m2    F      %     mph   deg.    mph    mb.     in.     
-------------------------------------------------------------------------
 123    3:30   0.00   42.6    60    0.0     0     0.0   99999.0    0.00 
 123    3:40   0.00   42.3    61    0.0     0     0.0   99999.0    0.00 
 123    3:50   0.00   44.9    56    0.2   304     1.2   99999.0    0.00 
 123    4:00   0.00   45.4    54    0.4   304     1.2   99999.0    0.00 
 123    4:10   0.00   43.3    58    0.4   202     1.2   99999.0    0.00 
 123    4:20   0.00   42.7    59    0.2   237     1.2   99999.0    0.00 
 123    4:30   0.00   42.1    61    0.0   255     1.2   99999.0    0.00 
 123    4:40   0.00   41.5    63    0.1   250     1.2   99999.0    0.00 
 123    4:50   0.00   41.1    64    0.5   182     1.8   99999.0    0.00 
 123    5:00   0.00   41.1    64    0.3   206     1.8   99999.0    0.00 
 123    5:10   0.00   41.0    64    0.3   200     1.2   99999.0    0.00 
 123    5:20   0.00   41.0    64    0.0   247     1.2   99999.0    0.00 
 123    5:30   0.01   41.5    63    0.0     0     0.0   99999.0    0.00 
 123    5:40   0.01   41.3    64    0.0     0     0.0   99999.0    0.00 
 123    5:50   0.02   41.9    63    0.0     0     0.0   99999.0    0.00 
 123    6:00   0.03   42.2    64    0.0     0     0.0   99999.0    0.00 
 123    6:10   0.04   42.4    64    0.0     0     0.0   99999.0    0.00 
 123    6:20   0.05   42.9    65    0.0     0     0.0   99999.0    0.00 
 123    6:30   0.07   43.8    65    0.0     0     0.0   99999.0    0.00 
 123    6:40   0.08   44.8    65    0.0     0     0.0   99999.0    0.00 
 123    6:50   0.08   46.3    65    0.7     4     2.4   99999.0    0.00 
 123    7:00   0.07   48.3    62    1.9   353     2.4   99999.0    0.00 
 123    7:10   0.08   50.8    52    2.3     4     3.6   99999.0    0.00 
 123    7:20   0.11   52.1    47    2.3    14     3.6   99999.0    0.00 
 123    7:30   0.15   52.7    44    1.9   314     4.8   99999.0    0.00 
 123    7:40   0.24   53.6    43    2.0   235     4.2   99999.0    0.00 
 123    7:50   0.23   54.1    41    2.1   314     4.8   99999.0    0.00 
 123    8:00   0.25   54.6    40    2.3   250     4.8   99999.0    0.00 
 123    8:10   0.24   55.2    39    2.1   151     4.8   99999.0    0.00 
 123    8:20   0.31   54.7    40    1.8    16     3.6   99999.0    0.00 
 123    8:30   0.35   55.3    40    2.0   277     4.8   99999.0    0.00 
 123    8:40   0.40   55.1    40    2.2   202     4.8   99999.0    0.00 
 123    8:50   0.37   55.4    39    2.0    45     3.6   99999.0    0.00 
 123    9:00   0.27   55.6    41    3.6   155     6.0   99999.0    0.00 
 123    9:10   0.23   54.7    40    2.5   178     5.4   99999.0    0.00 
 123    9:20   0.28   55.3    39    2.0   185     6.6   99999.0    0.00 
 123    9:30   0.51   56.4    37    2.9   149     5.4   99999.0    0.00 
 123    9:40   0.89   57.8    34    2.9   162     6.0   99999.0    0.00 
 123    9:50   0.83   58.9    33    2.9   290     7.8   99999.0    0.00 
 123   10:00   0.77   57.7    35    3.4    49     6.6   99999.0    0.00 
 123   10:10   0.92   60.1    32    2.6   295     4.8   99999.0    0.00 
 123   10:20   0.97   61.0    30    2.5   289     4.8   99999.0    0.00 
 123   10:30   0.94   60.9    30    3.3   209     7.8   99999.0    0.00 
 123   10:40   0.97   60.8    31    3.2   129     8.4   99999.0    0.00 
 123   10:50   1.01   62.3    29    2.8   252     5.4   99999.0    0.00 
 123   11:00   1.01   61.8    29    3.9   282     7.8   99999.0    0.00 
 123   11:10   1.02   61.2    28    5.0   178    10.8   99999.0    0.00 
 123   11:20   1.05   62.1    28    3.5   151     7.2   99999.0    0.00 
 123   11:30   1.04   63.8    27    3.1   210     6.6   99999.0    0.00 
 123   11:40   1.06   63.7    26    5.4   172    16.1   99999.0    0.00 
 123   11:50   0.60   61.3    27    4.0   208    10.2   99999.0    0.00 
 123   12:00   0.96   61.9    27    3.8   154     9.6   99999.0    0.00 
 123   12:10   1.10   63.9    26    6.8   164    14.9   99999.0    0.00 
 123   12:20   0.91   63.0    26    4.9   184    13.1   99999.0    0.00 
 123   12:30   0.70   64.7    25    5.1   168    11.9   99999.0    0.00 
 123   12:40   0.27   61.4    27    3.8   184     8.4   99999.0    0.00 
 123   12:50   0.57   61.3    29    3.7   174     9.0   99999.0    0.00 
 123   13:00   1.03   62.3    31    4.2   104     9.6   99999.0    0.00 
 123   13:10   0.97   62.7    30    4.7   146    13.1   99999.0    0.00 
 123   13:20   0.97   62.3    30    5.4   135    13.1   99999.0    0.00 
 123   13:30   0.99   62.1    30    4.4    82    11.3   99999.0    0.00 
 123   13:40   0.89   62.4    29    3.8   137     7.8   99999.0    0.00 
 123   13:50   0.37   60.8    30    3.8    27     6.6   99999.0    0.00 
 123   14:00   0.18   61.4    29    3.5   355     6.3   99999.0    0.00 
 123   14:10   0.20   61.2    29    3.5   132     7.2   99999.0    0.00 
 123   14:20   0.20   59.6    30    3.3   332     7.2   99999.0    0.00 
 123   14:30   0.20   58.7    30    2.8   340     6.0   99999.0    0.00 
 123   14:40   0.14   58.8    30    2.8   342     6.0   99999.0    0.00 
 123   14:50   0.13   58.5    31    3.0    43     6.6   99999.0    0.00 
 123   15:00   0.22   59.2    30    2.4   307     4.2   99999.0    0.00 
 123   15:10   0.64   63.0    27    2.8   103     6.6   99999.0    0.00 
 123   15:20   0.59   64.2    23    4.3   174    16.1   99999.0    0.00 
 123   15:30   0.32   63.4    23    4.1   170    10.8   99999.0    0.00 
 123   15:40   0.30   61.7    25    3.4   177     9.0   99999.0    0.00 
 123   15:50   0.55   61.8    24    3.3   184     9.0   99999.0    0.00 
 123   16:00   0.45   61.4    24    4.2   166    11.3   99999.0    0.00 
 123   16:10   0.55   61.7    25    4.3   179    11.3   99999.0    0.00 
 123   16:20   0.19   61.4    24    5.3   158    11.3   99999.0    0.00 
 123   16:30   0.17   61.6    25    3.5   166    10.2   99999.0    0.00 
 123   16:40   0.07   60.9    24    5.7   182    13.1   99999.0    0.00 
 123   16:50   0.06   59.1    27    3.2   167    13.1   99999.0    0.00 
 123   17:00   0.09   57.7    34    5.5   167    13.7   99999.0    0.00 
 123   17:10   0.04   55.3    40    5.4   146    14.3   99999.0    0.00 
 123   17:20   0.04   54.3    42    4.7   172    11.9   99999.0    0.00 
 123   17:30   0.03   54.0    43    3.9   147    11.3   99999.0    0.00 
 123   17:40   0.03   53.3    45    3.7   191     8.4   99999.0    0.00 
 123   17:50   0.03   53.0    45    4.2   140    11.3   99999.0    0.00 
 123   18:00   0.03   52.7    46    2.8   106     5.4   99999.0    0.00 
 123   18:10   0.03   52.2    47    3.3   127     9.0   99999.0    0.00 
 123   18:20   0.02   52.0    48    2.7   110     6.0   99999.0    0.00 
 123   18:30   0.02   51.6    48    2.5    52     7.8   99999.0    0.00 
 123   18:40   0.01   51.4    48    2.3    20     4.2   99999.0    0.00 
 123   18:50   0.00   51.4    49    2.9   343     4.8   99999.0    0.00 
 123   19:00   0.00   51.1    50    3.8   340     6.0   99999.0    0.00 
 123   19:10   0.00   51.0    50    4.4   330     7.8   99999.0    0.00 
 123   19:20   0.00   50.9    50    4.2   335     9.0   99999.0    0.00 
 123   19:30   0.00   51.0    50    4.1   338     8.4   99999.0    0.00 
 123   19:40   0.00   50.9    51    4.2   344     7.2   99999.0    0.00 
 123   19:50   0.00   50.8    51    4.6   340     7.2   99999.0    0.00 
 123   20:00   0.00   50.6    51    4.4   349     7.2   99999.0    0.00 
 123   20:10   0.00   50.4    50    3.9   347     7.2   99999.0    0.00 
 123   20:20   0.00   50.3    49    3.2   334     4.8   99999.0    0.00 
 123   20:30   0.00   50.1    48    2.8   335     4.2   99999.0    0.00 
 123   20:40   0.00   49.9    48    3.3   343     6.6   99999.0    0.00 
 123   20:50   0.00   49.8    48    3.8   341     5.4   99999.0    0.00 
 123   21:00   0.00   49.6    49    3.5   343     5.4   99999.0    0.00 
 123   21:10   0.00   49.9    47    3.4   339     6.0   99999.0    0.00 
 123   21:20   0.00   49.8    47    2.3   338     3.6   99999.0    0.00 
 123   21:30   0.00   49.4    47    1.7   327     3.0   99999.0    0.00 
 123   21:40   0.00   49.6    46    1.2   313     1.8   99999.0    0.00 
 123   21:50   0.00   48.6    48    1.0   152     2.4   99999.0    0.00 
 123   22:00   0.00   46.5    52    1.7   173     2.4   99999.0    0.00 
 123   22:10   0.00   46.7    51    1.0   180     3.0   99999.0    0.00 
 123   22:20   0.00   47.2    50    1.1   184     2.4   99999.0    0.00 
 123   22:30   0.00   46.6    52    0.7    91     2.4   99999.0    0.00 
 123   22:40   0.00   45.4    55    0.3   238     1.8   99999.0    0.00 
 123   22:50   0.00   45.2    55    0.0     0     0.0   99999.0    0.00 
 123   23:00   0.00   44.1    58    0.0     0     0.0   99999.0    0.00 
 123   23:10   0.00   43.7    59    0.0     0     0.0   99999.0    0.00 
 123   23:20   0.00   43.4    60    0.6   181     1.8   99999.0    0.00 
 123   23:30   0.00   43.6    62    0.0   119     1.2   99999.0    0.00 
 123   23:40   0.00   45.6    59    0.0     0     0.0   99999.0    0.00 
 123   23:50   0.00   45.1    59    0.4   238     1.2   99999.0    0.00 
 124    0:00   0.00   46.2    56    0.1   238     1.2   99999.0    0.00 
 124    0:10   0.00   44.7    59    0.0     0     0.0   99999.0    0.00 
 124    0:20   0.00   44.0    60    0.0     0     0.0   99999.0    0.00 
 124    0:30   0.00   43.9    59    0.0     0     0.0   99999.0    0.00 
 124    0:40   0.00   43.3    61    0.1   196     1.2   99999.0    0.00 
 124    0:50   0.00   43.8    60    0.0     0     0.0   99999.0    0.00 
 124    1:00   0.00   43.9    60    0.0     0     0.0   99999.0    0.00 
 124    1:10   0.00   43.8    60    0.2   186     1.8   99999.0    0.00 
 124    1:20   0.00   44.0    61    0.9   160     3.0   99999.0    0.00 
 124    1:30   0.00   44.7    61    1.7   140     3.0   99999.0    0.00 
 124    1:40   0.00   44.8    61    1.2   168     3.0   99999.0    0.00 
 124    1:50   0.00   46.1    60    1.4   168     4.2   99999.0    0.00 
 124    2:00   0.00   46.2    60    1.4   350     3.6   99999.0    0.00 
 124    2:10   0.00   45.2    64    1.7   348     3.0   99999.0    0.00 
 124    2:20   0.00   44.3    69    2.7   350     4.2   99999.0    0.00 
 124    2:30   0.00   43.8    72    3.7   335     5.4   99999.0    0.00 
 124    2:40   0.00   43.9    70    3.3   346     6.0   99999.0    0.00 
 124    2:50   0.00   44.0    69    3.5   341     4.8   99999.0    0.00 
 124    3:00   0.00   44.3    67    4.0   342     7.2   99999.0    0.00 
 124    3:10   0.00   44.4    68    4.2   347     7.8   99999.0    0.00 
 124    3:20   0.00   44.6    68    4.7   347     8.4   99999.0    0.00 

Return to Conejos, Valles Caldera graphs page.


Western Regional Climate Center,wrcc@dri.edu